sensor_id;sensor_type;location;lat;lon;timestamp;P1;durP1;ratioP1;P2;durP2;ratioP2
21647;SDS011;10985;54.182;7.890;2023-05-15T00:00:03;29.05;;;24.58;;
21647;SDS011;10985;54.182;7.890;2023-05-15T00:02:30;32.33;;;26.20;;
21647;SDS011;10985;54.182;7.890;2023-05-15T00:04:58;26.58;;;22.23;;
21647;SDS011;10985;54.182;7.890;2023-05-15T00:07:24;24.98;;;22.27;;
21647;SDS011;10985;54.182;7.890;2023-05-15T00:09:49;22.77;;;20.38;;
21647;SDS011;10985;54.182;7.890;2023-05-15T00:12:15;24.73;;;22.08;;
21647;SDS011;10985;54.182;7.890;2023-05-15T00:14:40;29.83;;;24.83;;
21647;SDS011;10985;54.182;7.890;2023-05-15T00:17:06;29.30;;;26.08;;
21647;SDS011;10985;54.182;7.890;2023-05-15T00:19:32;31.02;;;27.63;;
21647;SDS011;10985;54.182;7.890;2023-05-15T00:21:57;32.58;;;27.95;;
21647;SDS011;10985;54.182;7.890;2023-05-15T00:24:23;32.95;;;28.02;;
21647;SDS011;10985;54.182;7.890;2023-05-15T00:26:48;30.05;;;26.48;;
21647;SDS011;10985;54.182;7.890;2023-05-15T00:29:14;31.20;;;25.10;;
21647;SDS011;10985;54.182;7.890;2023-05-15T00:31:39;33.42;;;26.48;;
21647;SDS011;10985;54.182;7.890;2023-05-15T00:34:05;30.00;;;26.60;;
21647;SDS011;10985;54.182;7.890;2023-05-15T00:36:30;29.65;;;25.50;;
21647;SDS011;10985;54.182;7.890;2023-05-15T00:38:56;32.17;;;28.65;;
21647;SDS011;10985;54.182;7.890;2023-05-15T00:41:22;33.33;;;29.05;;
21647;SDS011;10985;54.182;7.890;2023-05-15T00:43:50;36.80;;;29.45;;
21647;SDS011;10985;54.182;7.890;2023-05-15T00:46:18;35.33;;;29.75;;
21647;SDS011;10985;54.182;7.890;2023-05-15T00:48:45;37.97;;;30.33;;
21647;SDS011;10985;54.182;7.890;2023-05-15T00:51:12;42.40;;;33.75;;
21647;SDS011;10985;54.182;7.890;2023-05-15T00:53:37;44.22;;;35.78;;
21647;SDS011;10985;54.182;7.890;2023-05-15T00:56:04;40.60;;;32.33;;
21647;SDS011;10985;54.182;7.890;2023-05-15T00:58:30;42.08;;;34.05;;
21647;SDS011;10985;54.182;7.890;2023-05-15T01:00:56;46.78;;;35.72;;
21647;SDS011;10985;54.182;7.890;2023-05-15T01:03:22;48.38;;;37.13;;
21647;SDS011;10985;54.182;7.890;2023-05-15T01:05:47;46.92;;;35.17;;
21647;SDS011;10985;54.182;7.890;2023-05-15T01:08:20;49.67;;;36.47;;
21647;SDS011;10985;54.182;7.890;2023-05-15T01:10:51;45.10;;;35.95;;
21647;SDS011;10985;54.182;7.890;2023-05-15T01:13:18;50.40;;;35.85;;
21647;SDS011;10985;54.182;7.890;2023-05-15T01:15:45;48.45;;;35.05;;
21647;SDS011;10985;54.182;7.890;2023-05-15T01:18:11;48.17;;;34.65;;
21647;SDS011;10985;54.182;7.890;2023-05-15T01:31:57;52.95;;;36.20;;
21647;SDS011;10985;54.182;7.890;2023-05-15T01:34:32;56.78;;;37.13;;
21647;SDS011;10985;54.182;7.890;2023-05-15T01:37:06;56.40;;;36.83;;
21647;SDS011;10985;54.182;7.890;2023-05-15T01:39:33;59.70;;;39.10;;
21647;SDS011;10985;54.182;7.890;2023-05-15T01:44:44;56.92;;;36.97;;
21647;SDS011;10985;54.182;7.890;2023-05-15T01:47:17;60.92;;;38.50;;
21647;SDS011;10985;54.182;7.890;2023-05-15T01:49:46;58.50;;;37.35;;
21647;SDS011;10985;54.182;7.890;2023-05-15T01:52:15;61.55;;;39.45;;
21647;SDS011;10985;54.182;7.890;2023-05-15T01:54:46;59.90;;;38.28;;
21647;SDS011;10985;54.182;7.890;2023-05-15T01:57:14;59.78;;;37.22;;
21647;SDS011;10985;54.182;7.890;2023-05-15T01:59:40;56.90;;;38.00;;
21647;SDS011;10985;54.182;7.890;2023-05-15T02:02:06;50.95;;;36.65;;
21647;SDS011;10985;54.182;7.890;2023-05-15T02:04:35;62.03;;;37.95;;
21647;SDS011;10985;54.182;7.890;2023-05-15T02:07:02;60.45;;;38.67;;
21647;SDS011;10985;54.182;7.890;2023-05-15T02:09:28;55.20;;;37.92;;
21647;SDS011;10985;54.182;7.890;2023-05-15T02:11:55;61.35;;;37.78;;
21647;SDS011;10985;54.182;7.890;2023-05-15T02:14:21;60.55;;;37.50;;
21647;SDS011;10985;54.182;7.890;2023-05-15T02:16:48;56.17;;;39.03;;
21647;SDS011;10985;54.182;7.890;2023-05-15T02:19:15;57.33;;;37.47;;
21647;SDS011;10985;54.182;7.890;2023-05-15T02:21:40;60.38;;;39.15;;
21647;SDS011;10985;54.182;7.890;2023-05-15T02:24:06;56.80;;;39.15;;
21647;SDS011;10985;54.182;7.890;2023-05-15T02:29:27;57.88;;;38.70;;
21647;SDS011;10985;54.182;7.890;2023-05-15T02:37:03;64.65;;;38.42;;
21647;SDS011;10985;54.182;7.890;2023-05-15T02:39:35;61.67;;;37.60;;
21647;SDS011;10985;54.182;7.890;2023-05-15T02:42:02;64.10;;;40.00;;
21647;SDS011;10985;54.182;7.890;2023-05-15T02:44:29;64.07;;;39.80;;
21647;SDS011;10985;54.182;7.890;2023-05-15T02:46:55;61.03;;;39.72;;
21647;SDS011;10985;54.182;7.890;2023-05-15T02:49:21;61.85;;;39.92;;
21647;SDS011;10985;54.182;7.890;2023-05-15T02:51:47;60.83;;;40.80;;
21647;SDS011;10985;54.182;7.890;2023-05-15T02:54:13;69.43;;;41.80;;
21647;SDS011;10985;54.182;7.890;2023-05-15T02:56:39;68.93;;;41.45;;
21647;SDS011;10985;54.182;7.890;2023-05-15T02:59:04;65.60;;;41.70;;
21647;SDS011;10985;54.182;7.890;2023-05-15T03:01:30;65.15;;;40.10;;
21647;SDS011;10985;54.182;7.890;2023-05-15T03:03:55;64.78;;;41.33;;
21647;SDS011;10985;54.182;7.890;2023-05-15T03:06:21;63.50;;;40.55;;
21647;SDS011;10985;54.182;7.890;2023-05-15T03:08:46;67.00;;;41.08;;
21647;SDS011;10985;54.182;7.890;2023-05-15T03:11:12;66.47;;;38.15;;
21647;SDS011;10985;54.182;7.890;2023-05-15T03:13:37;67.43;;;39.50;;
21647;SDS011;10985;54.182;7.890;2023-05-15T03:16:03;70.30;;;41.28;;
21647;SDS011;10985;54.182;7.890;2023-05-15T03:18:29;73.80;;;41.88;;
21647;SDS011;10985;54.182;7.890;2023-05-15T03:20:54;66.03;;;39.80;;
21647;SDS011;10985;54.182;7.890;2023-05-15T03:23:20;68.38;;;41.63;;
21647;SDS011;10985;54.182;7.890;2023-05-15T03:25:45;77.50;;;43.97;;
21647;SDS011;10985;54.182;7.890;2023-05-15T03:28:11;85.15;;;44.47;;
21647;SDS011;10985;54.182;7.890;2023-05-15T03:30:36;79.15;;;43.28;;
21647;SDS011;10985;54.182;7.890;2023-05-15T03:33:02;77.35;;;43.75;;
21647;SDS011;10985;54.182;7.890;2023-05-15T03:35:28;78.43;;;44.88;;
21647;SDS011;10985;54.182;7.890;2023-05-15T03:37:56;79.35;;;43.85;;
21647;SDS011;10985;54.182;7.890;2023-05-15T03:40:21;86.50;;;46.22;;
21647;SDS011;10985;54.182;7.890;2023-05-15T03:42:47;89.43;;;47.03;;
21647;SDS011;10985;54.182;7.890;2023-05-15T03:45:12;97.30;;;48.70;;
21647;SDS011;10985;54.182;7.890;2023-05-15T03:47:38;94.40;;;50.10;;
21647;SDS011;10985;54.182;7.890;2023-05-15T03:50:03;97.78;;;49.22;;
21647;SDS011;10985;54.182;7.890;2023-05-15T03:52:29;88.97;;;47.97;;
21647;SDS011;10985;54.182;7.890;2023-05-15T03:54:55;96.85;;;48.42;;
21647;SDS011;10985;54.182;7.890;2023-05-15T03:57:21;96.93;;;51.28;;
21647;SDS011;10985;54.182;7.890;2023-05-15T03:59:46;90.80;;;48.95;;
21647;SDS011;10985;54.182;7.890;2023-05-15T04:02:11;96.40;;;48.03;;
21647;SDS011;10985;54.182;7.890;2023-05-15T04:04:37;85.35;;;46.25;;
21647;SDS011;10985;54.182;7.890;2023-05-15T04:07:03;85.55;;;45.85;;
21647;SDS011;10985;54.182;7.890;2023-05-15T04:09:29;86.40;;;44.35;;
21647;SDS011;10985;54.182;7.890;2023-05-15T04:11:54;81.68;;;44.40;;
21647;SDS011;10985;54.182;7.890;2023-05-15T04:14:20;89.97;;;47.83;;
21647;SDS011;10985;54.182;7.890;2023-05-15T04:16:45;86.38;;;46.63;;
21647;SDS011;10985;54.182;7.890;2023-05-15T04:19:11;85.40;;;44.63;;
21647;SDS011;10985;54.182;7.890;2023-05-15T04:21:36;88.25;;;45.67;;
21647;SDS011;10985;54.182;7.890;2023-05-15T04:24:02;91.90;;;47.08;;
21647;SDS011;10985;54.182;7.890;2023-05-15T04:26:28;91.22;;;45.25;;
21647;SDS011;10985;54.182;7.890;2023-05-15T04:28:53;84.25;;;45.75;;
21647;SDS011;10985;54.182;7.890;2023-05-15T04:31:21;77.45;;;43.63;;
21647;SDS011;10985;54.182;7.890;2023-05-15T04:33:46;84.65;;;45.80;;
21647;SDS011;10985;54.182;7.890;2023-05-15T04:36:12;82.53;;;42.63;;
21647;SDS011;10985;54.182;7.890;2023-05-15T04:38:37;84.72;;;44.63;;
21647;SDS011;10985;54.182;7.890;2023-05-15T04:41:03;77.50;;;43.38;;
21647;SDS011;10985;54.182;7.890;2023-05-15T04:43:28;79.57;;;42.80;;
21647;SDS011;10985;54.182;7.890;2023-05-15T04:45:54;80.15;;;44.10;;
21647;SDS011;10985;54.182;7.890;2023-05-15T04:48:19;76.30;;;42.67;;
21647;SDS011;10985;54.182;7.890;2023-05-15T04:50:45;81.75;;;43.13;;
21647;SDS011;10985;54.182;7.890;2023-05-15T04:53:10;75.07;;;41.47;;
21647;SDS011;10985;54.182;7.890;2023-05-15T04:55:36;73.22;;;41.72;;
21647;SDS011;10985;54.182;7.890;2023-05-15T04:58:01;71.55;;;39.80;;
21647;SDS011;10985;54.182;7.890;2023-05-15T05:00:27;71.30;;;40.25;;
21647;SDS011;10985;54.182;7.890;2023-05-15T05:02:53;61.63;;;39.13;;
21647;SDS011;10985;54.182;7.890;2023-05-15T05:05:18;64.55;;;39.58;;
21647;SDS011;10985;54.182;7.890;2023-05-15T05:07:44;63.65;;;38.35;;
21647;SDS011;10985;54.182;7.890;2023-05-15T05:10:10;62.25;;;36.15;;
21647;SDS011;10985;54.182;7.890;2023-05-15T05:12:36;62.85;;;37.53;;
21647;SDS011;10985;54.182;7.890;2023-05-15T05:15:01;61.42;;;38.22;;
21647;SDS011;10985;54.182;7.890;2023-05-15T05:17:28;60.72;;;36.95;;
21647;SDS011;10985;54.182;7.890;2023-05-15T05:19:54;57.05;;;36.92;;
21647;SDS011;10985;54.182;7.890;2023-05-15T05:22:19;61.60;;;38.63;;
21647;SDS011;10985;54.182;7.890;2023-05-15T05:24:45;57.60;;;35.45;;
21647;SDS011;10985;54.182;7.890;2023-05-15T05:27:10;58.40;;;34.90;;
21647;SDS011;10985;54.182;7.890;2023-05-15T05:29:36;52.22;;;34.40;;
21647;SDS011;10985;54.182;7.890;2023-05-15T05:32:02;52.10;;;33.53;;
21647;SDS011;10985;54.182;7.890;2023-05-15T05:34:27;54.20;;;33.50;;
21647;SDS011;10985;54.182;7.890;2023-05-15T05:36:53;54.15;;;34.22;;
21647;SDS011;10985;54.182;7.890;2023-05-15T05:39:19;54.63;;;32.78;;
21647;SDS011;10985;54.182;7.890;2023-05-15T05:41:45;52.28;;;32.88;;
21647;SDS011;10985;54.182;7.890;2023-05-15T05:44:10;49.90;;;33.33;;
21647;SDS011;10985;54.182;7.890;2023-05-15T05:46:36;46.97;;;32.65;;
21647;SDS011;10985;54.182;7.890;2023-05-15T05:49:01;52.83;;;32.63;;
21647;SDS011;10985;54.182;7.890;2023-05-15T05:51:27;47.78;;;31.58;;
21647;SDS011;10985;54.182;7.890;2023-05-15T05:53:52;47.72;;;30.70;;
21647;SDS011;10985;54.182;7.890;2023-05-15T05:56:18;48.10;;;31.25;;
21647;SDS011;10985;54.182;7.890;2023-05-15T05:58:43;52.13;;;32.05;;
21647;SDS011;10985;54.182;7.890;2023-05-15T06:01:09;46.15;;;30.85;;
21647;SDS011;10985;54.182;7.890;2023-05-15T06:03:35;42.65;;;31.45;;
21647;SDS011;10985;54.182;7.890;2023-05-15T06:06:02;44.35;;;30.75;;
21647;SDS011;10985;54.182;7.890;2023-05-15T06:08:28;44.00;;;29.85;;
21647;SDS011;10985;54.182;7.890;2023-05-15T06:10:53;42.83;;;29.65;;
21647;SDS011;10985;54.182;7.890;2023-05-15T06:13:19;47.30;;;29.92;;
21647;SDS011;10985;54.182;7.890;2023-05-15T06:15:45;48.33;;;30.35;;
21647;SDS011;10985;54.182;7.890;2023-05-15T06:18:11;45.30;;;30.13;;
21647;SDS011;10985;54.182;7.890;2023-05-15T06:20:36;45.75;;;30.88;;
21647;SDS011;10985;54.182;7.890;2023-05-15T06:23:02;46.88;;;30.70;;
21647;SDS011;10985;54.182;7.890;2023-05-15T06:25:28;43.38;;;28.83;;
21647;SDS011;10985;54.182;7.890;2023-05-15T06:27:54;49.60;;;30.08;;
21647;SDS011;10985;54.182;7.890;2023-05-15T06:30:19;51.42;;;30.52;;
21647;SDS011;10985;54.182;7.890;2023-05-15T06:32:45;43.42;;;29.73;;
21647;SDS011;10985;54.182;7.890;2023-05-15T06:35:11;38.42;;;26.85;;
21647;SDS011;10985;54.182;7.890;2023-05-15T06:37:36;43.45;;;27.90;;
21647;SDS011;10985;54.182;7.890;2023-05-15T06:40:03;38.60;;;27.90;;
21647;SDS011;10985;54.182;7.890;2023-05-15T06:42:29;31.45;;;25.55;;
21647;SDS011;10985;54.182;7.890;2023-05-15T06:44:55;37.75;;;26.67;;
21647;SDS011;10985;54.182;7.890;2023-05-15T06:47:20;33.58;;;24.50;;
21647;SDS011;10985;54.182;7.890;2023-05-15T06:49:46;34.90;;;23.20;;
21647;SDS011;10985;54.182;7.890;2023-05-15T06:52:11;36.65;;;23.10;;
21647;SDS011;10985;54.182;7.890;2023-05-15T06:54:37;26.48;;;19.58;;
21647;SDS011;10985;54.182;7.890;2023-05-15T06:57:04;23.85;;;18.73;;
21647;SDS011;10985;54.182;7.890;2023-05-15T06:59:30;30.35;;;17.50;;
21647;SDS011;10985;54.182;7.890;2023-05-15T07:01:58;24.05;;;17.90;;
21647;SDS011;10985;54.182;7.890;2023-05-15T07:04:24;33.30;;;18.55;;
21647;SDS011;10985;54.182;7.890;2023-05-15T07:06:50;24.20;;;17.00;;
21647;SDS011;10985;54.182;7.890;2023-05-15T07:09:15;20.02;;;16.27;;
21647;SDS011;10985;54.182;7.890;2023-05-15T07:11:41;20.90;;;15.82;;
21647;SDS011;10985;54.182;7.890;2023-05-15T07:14:06;20.48;;;15.68;;
21647;SDS011;10985;54.182;7.890;2023-05-15T07:16:31;23.90;;;16.05;;
21647;SDS011;10985;54.182;7.890;2023-05-15T07:18:57;32.08;;;16.95;;
21647;SDS011;10985;54.182;7.890;2023-05-15T07:21:23;25.55;;;16.92;;
21647;SDS011;10985;54.182;7.890;2023-05-15T07:23:48;25.05;;;16.20;;
21647;SDS011;10985;54.182;7.890;2023-05-15T07:26:13;20.73;;;14.65;;
21647;SDS011;10985;54.182;7.890;2023-05-15T07:28:39;24.00;;;15.70;;
21647;SDS011;10985;54.182;7.890;2023-05-15T07:31:05;21.75;;;14.95;;
21647;SDS011;10985;54.182;7.890;2023-05-15T07:33:31;18.90;;;15.07;;
21647;SDS011;10985;54.182;7.890;2023-05-15T07:35:57;19.45;;;15.98;;
21647;SDS011;10985;54.182;7.890;2023-05-15T07:38:22;18.00;;;14.82;;
21647;SDS011;10985;54.182;7.890;2023-05-15T07:40:48;18.92;;;14.05;;
21647;SDS011;10985;54.182;7.890;2023-05-15T07:43:13;18.77;;;13.45;;
21647;SDS011;10985;54.182;7.890;2023-05-15T07:45:39;19.65;;;14.55;;
21647;SDS011;10985;54.182;7.890;2023-05-15T07:48:17;17.08;;;14.32;;
21647;SDS011;10985;54.182;7.890;2023-05-15T07:50:44;15.30;;;13.70;;
21647;SDS011;10985;54.182;7.890;2023-05-15T07:53:11;15.48;;;13.88;;
21647;SDS011;10985;54.182;7.890;2023-05-15T07:55:37;17.25;;;14.05;;
21647;SDS011;10985;54.182;7.890;2023-05-15T07:58:02;15.35;;;13.55;;
21647;SDS011;10985;54.182;7.890;2023-05-15T08:00:28;17.33;;;14.15;;
21647;SDS011;10985;54.182;7.890;2023-05-15T08:02:53;16.13;;;14.40;;
21647;SDS011;10985;54.182;7.890;2023-05-15T08:05:19;14.82;;;12.63;;
21647;SDS011;10985;54.182;7.890;2023-05-15T08:07:44;14.57;;;12.93;;
21647;SDS011;10985;54.182;7.890;2023-05-15T08:10:10;16.60;;;13.20;;
21647;SDS011;10985;54.182;7.890;2023-05-15T08:12:35;16.52;;;13.32;;
21647;SDS011;10985;54.182;7.890;2023-05-15T08:15:01;13.80;;;12.40;;
21647;SDS011;10985;54.182;7.890;2023-05-15T08:17:27;14.35;;;12.70;;
21647;SDS011;10985;54.182;7.890;2023-05-15T08:19:53;16.52;;;13.18;;
21647;SDS011;10985;54.182;7.890;2023-05-15T08:22:19;15.07;;;13.15;;
21647;SDS011;10985;54.182;7.890;2023-05-15T08:24:44;16.77;;;13.77;;
21647;SDS011;10985;54.182;7.890;2023-05-15T08:27:10;15.57;;;12.45;;
21647;SDS011;10985;54.182;7.890;2023-05-15T08:29:35;16.52;;;12.02;;
21647;SDS011;10985;54.182;7.890;2023-05-15T08:32:01;15.15;;;13.07;;
21647;SDS011;10985;54.182;7.890;2023-05-15T08:34:27;16.52;;;12.88;;
21647;SDS011;10985;54.182;7.890;2023-05-15T08:36:53;15.43;;;13.88;;
21647;SDS011;10985;54.182;7.890;2023-05-15T08:39:20;14.82;;;12.73;;
21647;SDS011;10985;54.182;7.890;2023-05-15T08:44:22;14.35;;;12.82;;
21647;SDS011;10985;54.182;7.890;2023-05-15T08:46:48;17.40;;;11.95;;
21647;SDS011;10985;54.182;7.890;2023-05-15T08:49:17;13.70;;;11.35;;
21647;SDS011;10985;54.182;7.890;2023-05-15T08:51:51;12.73;;;11.50;;
21647;SDS011;10985;54.182;7.890;2023-05-15T08:54:18;13.07;;;10.93;;
21647;SDS011;10985;54.182;7.890;2023-05-15T08:56:43;12.45;;;11.18;;
21647;SDS011;10985;54.182;7.890;2023-05-15T08:59:09;11.45;;;9.57;;
21647;SDS011;10985;54.182;7.890;2023-05-15T09:01:35;12.02;;;10.77;;
21647;SDS011;10985;54.182;7.890;2023-05-15T09:04:00;11.25;;;10.15;;
21647;SDS011;10985;54.182;7.890;2023-05-15T09:06:26;13.82;;;10.45;;
21647;SDS011;10985;54.182;7.890;2023-05-15T09:08:52;11.00;;;9.82;;
21647;SDS011;10985;54.182;7.890;2023-05-15T09:11:21;12.30;;;8.75;;
21647;SDS011;10985;54.182;7.890;2023-05-15T09:13:48;10.77;;;8.60;;
21647;SDS011;10985;54.182;7.890;2023-05-15T09:16:14;11.32;;;8.60;;
21647;SDS011;10985;54.182;7.890;2023-05-15T09:18:40;9.00;;;8.02;;
21647;SDS011;10985;54.182;7.890;2023-05-15T09:21:26;9.40;;;8.40;;
21647;SDS011;10985;54.182;7.890;2023-05-15T09:27:04;8.88;;;7.63;;
21647;SDS011;10985;54.182;7.890;2023-05-15T09:29:35;8.48;;;7.60;;
21647;SDS011;10985;54.182;7.890;2023-05-15T09:32:02;10.82;;;7.25;;
21647;SDS011;10985;54.182;7.890;2023-05-15T09:34:32;8.27;;;7.47;;
21647;SDS011;10985;54.182;7.890;2023-05-15T09:37:00;9.00;;;8.10;;
21647;SDS011;10985;54.182;7.890;2023-05-15T09:39:27;8.27;;;7.43;;
21647;SDS011;10985;54.182;7.890;2023-05-15T09:41:53;9.77;;;7.85;;
21647;SDS011;10985;54.182;7.890;2023-05-15T09:44:30;7.82;;;7.03;;
21647;SDS011;10985;54.182;7.890;2023-05-15T09:46:56;8.70;;;7.25;;
21647;SDS011;10985;54.182;7.890;2023-05-15T09:49:22;9.02;;;8.23;;
21647;SDS011;10985;54.182;7.890;2023-05-15T09:51:47;8.13;;;7.30;;
21647;SDS011;10985;54.182;7.890;2023-05-15T09:54:17;9.15;;;6.68;;
21647;SDS011;10985;54.182;7.890;2023-05-15T09:56:46;7.47;;;6.78;;
21647;SDS011;10985;54.182;7.890;2023-05-15T09:59:12;7.55;;;6.85;;
21647;SDS011;10985;54.182;7.890;2023-05-15T10:01:41;9.18;;;6.15;;
21647;SDS011;10985;54.182;7.890;2023-05-15T10:04:08;13.45;;;6.65;;
21647;SDS011;10985;54.182;7.890;2023-05-15T10:06:34;9.50;;;6.60;;
21647;SDS011;10985;54.182;7.890;2023-05-15T10:09:04;7.88;;;6.05;;
21647;SDS011;10985;54.182;7.890;2023-05-15T10:11:34;7.00;;;6.03;;
21647;SDS011;10985;54.182;7.890;2023-05-15T10:14:01;9.15;;;6.70;;
21647;SDS011;10985;54.182;7.890;2023-05-15T10:16:27;9.55;;;6.40;;
21647;SDS011;10985;54.182;7.890;2023-05-15T10:18:57;7.72;;;6.03;;
21647;SDS011;10985;54.182;7.890;2023-05-15T10:21:26;5.47;;;4.75;;
21647;SDS011;10985;54.182;7.890;2023-05-15T10:23:54;7.40;;;5.40;;
21647;SDS011;10985;54.182;7.890;2023-05-15T10:26:37;6.18;;;5.57;;
21647;SDS011;10985;54.182;7.890;2023-05-15T10:29:13;6.78;;;6.00;;
21647;SDS011;10985;54.182;7.890;2023-05-15T10:31:42;8.30;;;6.88;;
21647;SDS011;10985;54.182;7.890;2023-05-15T10:34:08;5.82;;;5.43;;
21647;SDS011;10985;54.182;7.890;2023-05-15T10:36:35;5.72;;;5.22;;
21647;SDS011;10985;54.182;7.890;2023-05-15T10:39:02;8.52;;;4.75;;
21647;SDS011;10985;54.182;7.890;2023-05-15T10:41:29;8.63;;;4.65;;
21647;SDS011;10985;54.182;7.890;2023-05-15T10:43:57;5.22;;;4.72;;
21647;SDS011;10985;54.182;7.890;2023-05-15T10:46:23;4.32;;;3.90;;
21647;SDS011;10985;54.182;7.890;2023-05-15T10:48:50;3.75;;;3.45;;
21647;SDS011;10985;54.182;7.890;2023-05-15T10:51:17;5.22;;;3.90;;
21647;SDS011;10985;54.182;7.890;2023-05-15T10:53:47;5.47;;;3.60;;
21647;SDS011;10985;54.182;7.890;2023-05-15T10:56:14;6.30;;;4.10;;
21647;SDS011;10985;54.182;7.890;2023-05-15T10:58:47;7.10;;;3.50;;
21647;SDS011;10985;54.182;7.890;2023-05-15T11:01:23;3.35;;;3.15;;
21647;SDS011;10985;54.182;7.890;2023-05-15T11:03:50;4.25;;;3.50;;
21647;SDS011;10985;54.182;7.890;2023-05-15T11:06:16;3.88;;;3.08;;
21647;SDS011;10985;54.182;7.890;2023-05-15T11:08:51;4.35;;;2.80;;
21647;SDS011;10985;54.182;7.890;2023-05-15T11:12:01;4.25;;;3.20;;
21647;SDS011;10985;54.182;7.890;2023-05-15T11:14:28;5.22;;;4.00;;
21647;SDS011;10985;54.182;7.890;2023-05-15T11:16:56;6.20;;;4.55;;
21647;SDS011;10985;54.182;7.890;2023-05-15T11:19:32;2.28;;;1.80;;
21647;SDS011;10985;54.182;7.890;2023-05-15T11:24:57;2.50;;;2.30;;
21647;SDS011;10985;54.182;7.890;2023-05-15T11:27:40;5.22;;;2.42;;
21647;SDS011;10985;54.182;7.890;2023-05-15T11:30:07;5.10;;;2.15;;
21647;SDS011;10985;54.182;7.890;2023-05-15T11:37:46;6.28;;;2.05;;
21647;SDS011;10985;54.182;7.890;2023-05-15T11:40:17;2.35;;;1.80;;
21647;SDS011;10985;54.182;7.890;2023-05-15T11:42:57;2.53;;;1.65;;
21647;SDS011;10985;54.182;7.890;2023-05-15T11:45:40;2.55;;;1.38;;
21647;SDS011;10985;54.182;7.890;2023-05-15T11:48:07;3.78;;;2.20;;
21647;SDS011;10985;54.182;7.890;2023-05-15T11:50:37;3.17;;;1.65;;
21647;SDS011;10985;54.182;7.890;2023-05-15T11:53:03;5.15;;;1.90;;
21647;SDS011;10985;54.182;7.890;2023-05-15T11:55:30;3.45;;;1.80;;
21647;SDS011;10985;54.182;7.890;2023-05-15T11:57:57;1.83;;;1.60;;
21647;SDS011;10985;54.182;7.890;2023-05-15T12:00:23;2.03;;;1.75;;
21647;SDS011;10985;54.182;7.890;2023-05-15T12:02:49;2.88;;;1.88;;
21647;SDS011;10985;54.182;7.890;2023-05-15T12:05:14;1.92;;;1.77;;
21647;SDS011;10985;54.182;7.890;2023-05-15T12:07:40;4.60;;;2.10;;
21647;SDS011;10985;54.182;7.890;2023-05-15T12:10:08;6.45;;;1.92;;
21647;SDS011;10985;54.182;7.890;2023-05-15T12:12:35;2.53;;;1.95;;
21647;SDS011;10985;54.182;7.890;2023-05-15T12:15:04;4.05;;;1.90;;
21647;SDS011;10985;54.182;7.890;2023-05-15T12:17:32;2.88;;;2.50;;
21647;SDS011;10985;54.182;7.890;2023-05-15T12:19:58;2.13;;;1.50;;
21647;SDS011;10985;54.182;7.890;2023-05-15T12:22:24;3.40;;;1.88;;
21647;SDS011;10985;54.182;7.890;2023-05-15T12:24:49;3.85;;;1.48;;
21647;SDS011;10985;54.182;7.890;2023-05-15T12:27:15;2.38;;;1.60;;
21647;SDS011;10985;54.182;7.890;2023-05-15T12:29:41;1.83;;;1.60;;
21647;SDS011;10985;54.182;7.890;2023-05-15T12:32:07;3.35;;;1.58;;
21647;SDS011;10985;54.182;7.890;2023-05-15T12:34:33;2.72;;;1.60;;
21647;SDS011;10985;54.182;7.890;2023-05-15T12:36:59;6.40;;;5.82;;
21647;SDS011;10985;54.182;7.890;2023-05-15T12:39:25;1.83;;;1.60;;
21647;SDS011;10985;54.182;7.890;2023-05-15T12:41:51;6.13;;;1.90;;
21647;SDS011;10985;54.182;7.890;2023-05-15T12:44:19;3.45;;;1.73;;
21647;SDS011;10985;54.182;7.890;2023-05-15T12:46:45;1.90;;;1.25;;
21647;SDS011;10985;54.182;7.890;2023-05-15T12:49:11;2.58;;;1.60;;
21647;SDS011;10985;54.182;7.890;2023-05-15T12:51:43;4.70;;;2.10;;
21647;SDS011;10985;54.182;7.890;2023-05-15T12:54:15;3.30;;;1.90;;
21647;SDS011;10985;54.182;7.890;2023-05-15T12:56:42;4.13;;;1.58;;
21647;SDS011;10985;54.182;7.890;2023-05-15T12:59:09;4.22;;;2.35;;
21647;SDS011;10985;54.182;7.890;2023-05-15T13:01:35;3.03;;;2.10;;
21647;SDS011;10985;54.182;7.890;2023-05-15T13:04:01;2.92;;;1.95;;
21647;SDS011;10985;54.182;7.890;2023-05-15T13:06:27;5.20;;;2.00;;
21647;SDS011;10985;54.182;7.890;2023-05-15T13:08:53;2.83;;;2.35;;
21647;SDS011;10985;54.182;7.890;2023-05-15T13:11:19;5.40;;;2.25;;
21647;SDS011;10985;54.182;7.890;2023-05-15T13:13:45;3.78;;;2.03;;
21647;SDS011;10985;54.182;7.890;2023-05-15T13:16:25;5.40;;;3.40;;
21647;SDS011;10985;54.182;7.890;2023-05-15T13:18:56;3.80;;;2.67;;
21647;SDS011;10985;54.182;7.890;2023-05-15T13:21:22;2.28;;;2.00;;
21647;SDS011;10985;54.182;7.890;2023-05-15T13:23:48;3.80;;;2.58;;
21647;SDS011;10985;54.182;7.890;2023-05-15T13:26:14;2.90;;;2.50;;
21647;SDS011;10985;54.182;7.890;2023-05-15T13:28:40;3.60;;;2.33;;
21647;SDS011;10985;54.182;7.890;2023-05-15T13:31:05;4.30;;;2.55;;
21647;SDS011;10985;54.182;7.890;2023-05-15T13:33:31;3.13;;;2.60;;
21647;SDS011;10985;54.182;7.890;2023-05-15T13:35:57;3.17;;;2.45;;
21647;SDS011;10985;54.182;7.890;2023-05-15T13:38:23;2.50;;;2.30;;
21647;SDS011;10985;54.182;7.890;2023-05-15T13:40:48;4.93;;;2.30;;
21647;SDS011;10985;54.182;7.890;2023-05-15T13:43:14;5.20;;;3.03;;
21647;SDS011;10985;54.182;7.890;2023-05-15T13:45:40;3.65;;;2.70;;
21647;SDS011;10985;54.182;7.890;2023-05-15T13:48:05;4.32;;;2.60;;
21647;SDS011;10985;54.182;7.890;2023-05-15T13:50:30;7.63;;;3.47;;
21647;SDS011;10985;54.182;7.890;2023-05-15T13:52:56;6.53;;;3.00;;
21647;SDS011;10985;54.182;7.890;2023-05-15T13:55:22;5.13;;;2.80;;
21647;SDS011;10985;54.182;7.890;2023-05-15T13:57:49;4.80;;;2.80;;
21647;SDS011;10985;54.182;7.890;2023-05-15T14:00:16;4.05;;;2.78;;
21647;SDS011;10985;54.182;7.890;2023-05-15T14:02:42;3.50;;;3.03;;
21647;SDS011;10985;54.182;7.890;2023-05-15T14:05:09;4.40;;;3.55;;
21647;SDS011;10985;54.182;7.890;2023-05-15T14:07:36;7.28;;;3.70;;
21647;SDS011;10985;54.182;7.890;2023-05-15T14:10:01;4.28;;;3.88;;
21647;SDS011;10985;54.182;7.890;2023-05-15T14:12:27;4.32;;;3.35;;
21647;SDS011;10985;54.182;7.890;2023-05-15T14:14:53;4.55;;;3.30;;
21647;SDS011;10985;54.182;7.890;2023-05-15T14:17:19;8.00;;;3.30;;
21647;SDS011;10985;54.182;7.890;2023-05-15T14:19:45;3.17;;;2.83;;
21647;SDS011;10985;54.182;7.890;2023-05-15T14:22:11;3.42;;;2.90;;
21647;SDS011;10985;54.182;7.890;2023-05-15T14:24:36;5.43;;;3.47;;
21647;SDS011;10985;54.182;7.890;2023-05-15T14:27:02;9.77;;;7.90;;
21647;SDS011;10985;54.182;7.890;2023-05-15T14:29:27;4.32;;;3.20;;
21647;SDS011;10985;54.182;7.890;2023-05-15T14:31:53;6.47;;;3.13;;
21647;SDS011;10985;54.182;7.890;2023-05-15T14:34:19;4.63;;;3.58;;
21647;SDS011;10985;54.182;7.890;2023-05-15T14:36:46;6.20;;;3.63;;
21647;SDS011;10985;54.182;7.890;2023-05-15T14:39:13;3.08;;;2.30;;
21647;SDS011;10985;54.182;7.890;2023-05-15T14:41:39;4.53;;;2.58;;
21647;SDS011;10985;54.182;7.890;2023-05-15T14:44:04;3.50;;;2.60;;
21647;SDS011;10985;54.182;7.890;2023-05-15T14:46:30;4.50;;;2.78;;
21647;SDS011;10985;54.182;7.890;2023-05-15T14:48:55;2.70;;;2.00;;
21647;SDS011;10985;54.182;7.890;2023-05-15T14:51:21;4.55;;;2.53;;
21647;SDS011;10985;54.182;7.890;2023-05-15T14:53:46;5.55;;;2.67;;
21647;SDS011;10985;54.182;7.890;2023-05-15T14:56:12;4.65;;;2.47;;
21647;SDS011;10985;54.182;7.890;2023-05-15T14:58:37;6.82;;;2.55;;
21647;SDS011;10985;54.182;7.890;2023-05-15T15:01:03;3.83;;;2.60;;
21647;SDS011;10985;54.182;7.890;2023-05-15T15:03:29;3.60;;;2.75;;